Rachel, Nevada Weather observations

Data are for observation ending at time listed.
 Day   Time    Ave.   Ave.  Ave.  Vector   Max.   Stn.    Total    Solar   Ave.  
  of    of     Air    Rel.  Wind   Wind    Wind   Baro.  Precip.   Rad.    Soil  
Year   Day     Temp.  Hum.  Speed  Dir.    Gust   Pres.                    Temp. 
2026   (PST)    F      %     mph   deg.    mph     mb.     in.     W/m2     F   
------------------------------------------------------------------------------
 124    6:10   55.5    47    0.7   177      2.3   843.9    0.00     180    60.0
 124    6:20   57.1    44    0.8   228      2.5   844.1    0.00     211    60.0
 124    6:30   58.4    42    0.7   212      2.6   844.2    0.00     238    60.0
 124    6:40   59.8    40    0.7   336      2.4   844.4    0.00     263    60.0
 124    6:50   58.2    43    1.3   326      2.7   844.5    0.00     290    60.1
 124    7:00   60.1    41    0.7   287      2.0   844.7    0.00     315    60.3
 124    7:10   60.7    40    0.9   328      3.9   844.9    0.00     344    60.5
 124    7:20   61.4    38    0.9   319      3.7   845.1    0.00     369    60.5
 124    7:30   62.7    36    1.4   289      4.2   845.3    0.00     393    60.6
 124    7:40   62.3    36    1.1   298      3.7   845.6    0.00     420    61.4
 124    7:50   63.6    34    1.9   313      4.0   845.6    0.00     445    61.2
 124    8:00   63.8    33    1.8   276      4.2   845.6    0.00     471    61.5
 124    8:10   64.0    31    9.7   160     20.5   845.5    0.00     498    61.6
 124    8:20   63.6    30   14.1   164     19.3   845.4    0.00     527    62.2
 124    8:30   64.1    29   13.9   163     20.7   845.3    0.00     549    62.6
 124    8:40   64.5    28   15.4   165     23.3   845.2    0.00     570    63.0
 124    8:50   64.6    27   17.4   162     22.9   845.2    0.00     592    63.4
 124    9:00   64.9    26   17.5   153     23.4   845.2    0.00     613    63.6
 124    9:10   65.0    26   15.5   166     21.0   845.2    0.00     625    64.1
 124    9:20   65.6    25   15.3   184     24.8   845.2    0.00     636    64.5
 124    9:30   66.0    25   16.0   172     30.8   845.2    0.00     678    64.8
 124    9:40   65.4    24   13.4   157     21.6   845.2    0.00     631    65.3
 124    9:50   66.5    23   15.8   187     21.8   845.2    0.00     731    65.5
 124   10:00   65.9    24   12.3   176     22.0   845.3    0.00     420    66.0
 124   10:10   66.9    22   17.1   177     24.3   845.0    0.00     774    66.3
 124   10:20   67.4    22   16.2   172     24.3   845.0    0.00     791    66.9
 124   10:30   67.0    22   16.9   164     23.6   845.3    0.00     801    67.3
 124   10:40   66.1    22   14.1   185     24.4   845.3    0.00     632    67.6
 124   10:50   66.5    21   14.9   190     25.5   845.2    0.00     519    68.2
 124   11:00   67.0    21   16.3   182     32.3   845.2    0.00     855    68.4
 124   11:10   67.4    20   12.8   166     25.1   845.1    0.00     876    68.9
 124   11:20   67.6    20   15.3   173     25.5   845.1    0.00     767    69.4
 124   11:30   67.3    20   13.8   150     23.5   844.9    0.00     450    69.5
 124   11:40   68.2    19   13.7   185     22.7   844.6    0.00     587    70.1
 124   11:50   66.9    20   14.9   178     25.9   844.5    0.00     359    70.5
 124   12:00   67.5    20   13.5   162     23.8   844.4    0.00     875    70.8
 124   12:10   67.9    18   15.2   196     23.8   844.4    0.00     793    70.9
 124   12:20   69.2    17   16.8   201     24.8   844.5    0.00     834    71.3
 124   12:30   68.0    18   16.0   206     28.8   844.5    0.00     655    71.4
 124   12:40   68.5    18   12.5   209     21.1   844.6    0.00     740    71.4
 124   12:50   68.7    19   12.3   196     23.3   844.6    0.00     724    71.2
 124   13:00   68.7    19   16.4   235     27.5   844.5    0.00     405    71.2
 124   13:10   68.3    18   17.4   216     37.2   844.5    0.00     504    71.3
 124   13:20   67.9    18   12.1   203     21.4   844.5    0.00     501    71.1
 124   13:30   68.8    16   16.4   217     26.8   844.4    0.00     729    71.1
 124   13:40   69.1    14   17.2   231     26.2   844.4    0.00     702    70.9
 124   13:50   69.1    15   18.2   238     27.8   844.3    0.00     686    70.8
 124   14:00   68.6    14   18.4   239     30.5   844.3    0.00     667    70.7
 124   14:10   69.1    13   17.7   237     31.0   844.3    0.00     664    70.6
 124   14:20   68.8    12   19.3   221     29.0   844.2    0.00     647    70.3
 124   14:30   68.4    14   16.5   228     25.4   844.3    0.00     616    70.4
 124   14:40   67.9    15   17.8   228     28.4   844.4    0.00     583    70.6
 124   14:50   67.2    16   19.4   242     30.1   844.3    0.00     560    70.2
 124   15:00   67.7    16   17.9   235     28.9   844.3    0.00     537    70.0
 124   15:10   67.2    16   16.9   233     26.7   844.2    0.00     514    70.0
 124   15:20   67.8    15   16.3   249     26.5   844.2    0.00     488    69.9
 124   15:30   67.3    16   17.4   241     26.7   844.2    0.00     462    69.9
 124   15:40   67.4    14   14.3   240     23.5   844.2    0.00     439    69.9
 124   15:50   67.2    15   16.2   241     25.5   844.1    0.00     414    69.6
 124   16:00   66.5    16   12.5   239     26.2   844.3    0.00     389    69.5
 124   16:10   67.0    16   15.0   235     28.6   844.1    0.00     362    69.5
 124   16:20   66.8    18   16.0   239     24.0   844.1    0.00     344    69.3
 124   16:30   66.2    18   18.1   233     28.4   844.1    0.00     312    69.5
 124   16:40   65.9    18   14.2   230     22.3   844.1    0.00     281    69.3
 124   16:50   65.8    17   16.2   235     25.7   844.0    0.00     255    69.1
 124   17:00   65.7    16   14.7   228     22.3   844.0    0.00     226    68.9
 124   17:10   65.2    17   12.8   219     22.3   843.9    0.00     200    68.8
 124   17:20   65.1    18   14.3   226     24.8   843.8    0.00     172    68.7
 124   17:30   64.6    19   14.3   247     21.3   843.7    0.00     146    68.4
 124   17:40   64.2    19   13.9   241     23.5   843.7    0.00     119    68.3
 124   17:50   63.4    19   15.1   243     22.5   843.6    0.00      94    68.3
 124   18:00   62.7    19   17.4   246     24.0   843.4    0.00      64    68.1
 124   18:10   61.9    20   14.7   238     22.5   843.3    0.00      34    67.9
 124   18:20   60.9    21   15.0   243     23.6   843.2    0.00      18    67.9
 124   18:30   60.0    21   15.4   240     23.7   843.1    0.00       8    67.6
 124   18:40   59.4    23   15.2   244     24.0   843.1    0.00       3    67.5
 124   18:50   58.8    25   13.4   246     20.7   843.4    0.00       2    67.2
 124   19:00   58.4    26   13.7   243     22.3   843.2    0.00       0    66.9
 124   19:10   58.0    26   12.7   245     18.9   843.1    0.00       0    66.8
 124   19:20   57.3    28   13.2   231     21.1   843.1    0.00       0    67.0
 124   19:30   57.2    29   14.1   238     21.5   843.5    0.00       0    66.6
 124   19:40   57.0    30   12.9   234     19.1   843.6    0.00       0    66.7
 124   19:50   56.7    30   12.2   230     22.4   843.7    0.00       0    66.3
 124   20:00   56.2    30   13.6   226     21.2   843.7    0.00       0    66.1
 124   20:10   56.0    30   14.2   231     22.7   843.7    0.00       0    65.9
 124   20:20   55.7    30   14.6   232     23.1   843.9    0.00       0    65.8
 124   20:30   55.4    30   15.1   234     23.1   843.9    0.00       0    65.3
 124   20:40   55.0    29   14.4   233     22.1   843.9    0.00       0    65.3
 124   20:50   54.7    29   13.3   234     20.8   843.9    0.00       0    65.3
 124   21:00   54.6    28   14.7   243     22.6   843.9    0.00       0    64.9
 124   21:10   54.1    29   12.4   238     18.5   844.0    0.00       0    64.9
 124   21:20   53.9    29   12.4   237     20.2   844.1    0.00       0    64.7
 124   21:30   53.9    29   12.3   230     19.9   844.1    0.00       0    64.5
 124   21:40   53.7    29   13.3   205     18.0   844.1    0.00       0    64.4
 124   21:50   54.4    28    9.9   199     17.4   844.0    0.00       0    64.2
 124   22:00   53.8    29   11.8   201     18.8   844.0    0.00       0    64.0
 124   22:10   53.3    29   12.0   196     18.0   844.0    0.00       0    63.9
 124   22:20   53.0    30    9.8   213     14.1   844.0    0.00       0    63.6
 124   22:30   52.7    32    8.8   224     16.7   844.1    0.00       0    63.5
 124   22:40   52.3    34    8.7   216     15.2   844.3    0.00       0    63.4
 124   22:50   52.2    32    8.4   196     12.3   844.2    0.00       0    63.1
 124   23:00   53.0    31    8.1   185     16.8   844.3    0.00       0    62.9
 124   23:10   52.8    31    7.8   206     16.1   844.3    0.00       0    62.8
 124   23:20   51.1    33    5.6   232     10.8   844.3    0.00       0    62.7
 124   23:30   50.0    34    5.3   132      8.8   844.4    0.00       0    62.5
 124   23:40   47.5    37    5.8    56     10.4   844.7    0.00       0    62.6
 124   23:50   48.5    36    4.9    87      9.6   844.6    0.00       0    62.3
 125    0:00   46.7    38    4.8   100      5.8   844.5    0.00       0    62.1
 125    0:10   46.1    39    3.4   122      4.8   844.1    0.00       0    61.9
 125    0:20   45.8    39    4.0   118      6.1   843.9    0.00       0    61.8
 125    0:30   44.8    41    3.5   176      7.2   843.8    0.00       0    61.7
 125    0:40   43.8    42    6.2    53      8.8   843.6    0.00       0    61.5
 125    0:50   43.3    45    6.2   108      8.1   843.5    0.00       0    61.2
 125    1:00   44.5    44    4.3    72      6.6   843.8    0.00       0    61.4
 125    1:10   43.8    42    2.9    32      4.7   843.8    0.00       0    61.0
 125    1:20   41.4    46    4.2    14      7.5   843.4    0.00       0    61.0
 125    1:30   40.4    48    3.1    24      6.4   843.2    0.00       0    60.7
 125    1:40   39.3    49    2.7    67      3.8   843.0    0.00       0    60.5
 125    1:50   38.9    50    1.0   212      3.8   843.0    0.00       0    60.4
 125    2:00   38.9    51    3.2   332      5.8   843.3    0.00       0    60.2
 125    2:10   39.9    50    1.3    20      3.2   843.3    0.00       0    59.9
 125    2:20   39.8    49    2.1   178      6.0   843.3    0.00       0    59.8
 125    2:30   38.6    52    5.0   170      5.9   843.2    0.00       0    59.7
 125    2:40   38.4    53    1.7   177      4.7   843.3    0.00       0    59.6
 125    2:50   38.1    53    2.3   182      4.1   843.3    0.00       0    59.5
 125    3:00   37.5    54    3.4   229      4.3   843.2    0.00       0    59.3
 125    3:10   37.2    55    2.0   196      3.9   843.2    0.00       0    59.1
 125    3:20   37.1    56    3.5   183      4.7   843.1    0.00       0    58.6
 125    3:30   37.6    56    2.8   175      3.5   843.2    0.00       0    58.8
 125    3:40   37.3    55    4.2   148      6.0   843.1    0.00       0    58.6
 125    3:50   36.5    58    2.9   180      4.3   843.1    0.00       0    58.3
 125    4:00   35.4    57    2.2   275      5.5   843.1    0.00       0    58.1
 125    4:10   34.3    60    1.6   284      3.7   843.0    0.00       0    58.2
 125    4:20   34.7    58    1.7   164      3.6   842.7    0.00       0    58.0
 125    4:30   35.3    60    3.6   200      5.1   842.6    0.00       0    57.7
 125    4:40   35.5    60    3.3   213      4.7   842.8    0.00       2    57.6
 125    4:50   35.2    60    1.4   204      2.3   843.0    0.00       4    57.4
 125    5:00   35.6    61    0.0   198      1.1   843.1    0.00      11    57.3
 125    5:10   36.4    58    0.0     0      0.0   843.1    0.00      27    57.2
 125    5:20   36.7    54    0.0     0      0.0   843.4    0.00      53    57.1
 125    5:30   37.3    56    0.0     0      0.0   843.5    0.00      81    56.9
 125    5:40   39.9    54    1.1   201      3.1   843.7    0.00     107    56.9
 125    5:50   38.8    54    3.5   190      4.2   843.9    0.00     133    56.8
 125    6:00   41.0    53    2.5   180      3.4   844.1    0.00     161    56.7

Return to St. George, Utah graphs page.


Western Regional Climate Center,wrcc@dri.edu